Airfield :
LOGIN :

Register | Disclaimer

   EN    FR    IT 

 










Legend :    VFR   Marginal VFR   IFR   Intensive IFR   Very Intensive IFR
Visi :
Ceiling :
>= 8 km
>= 3000ft
5 to 8 km
1000 to 3000 ft
1500m to 5 km
500 to 1000 ft
800 to 1500m
200 to 500 ft
< 800m
< 200 ft
Symbols :   Thunderstorms  Fog  Heavy snow  Heavy precipitations  Wind > 20 kt
SIGMETs :     Misc.  Thunderstorms  Icing  Turbulence  Mountain Waves  Volcanic Ashes






- Airport Elevation : 197 ft
- IATA code : XOG


LFMO - Orange

CURRENT METAR :
  • 031100Z AUTO 35018KT 310V010 9999 FEW064 28/12 Q1010 TEMPO 35020G35KT

EXPIRED METARs :
  • 031030Z AUTO 34019KT 300V010 9999 FEW060 28/12 Q1010 TEMPO 35020G35KT
  • 031000Z AUTO 33019KT CAVOK 27/13 Q1010 BECMG 35015G25KT
  • 030930Z AUTO 33018KT CAVOK 26/12 Q1010 BECMG 35015G25KT
  • 030900Z AUTO 34017G29KT CAVOK 26/13 Q1011 NOSIG
  • 030830Z AUTO 35017KT CAVOK 25/13 Q1010 BECMG 35015G25KT

TAF TAF LFMO
Valid from the 03 at 09:00 until the 04 at 09:00 UTC


030800Z 0309/0409 35015G25KT CAVOK
TEMPO 0312/0407 35020G35KT
BECMG 0407/0409 35025G35KT



MET'MAP, your aeronautical weather chart ! - Copyright ORBIFLY December 2007 - Disclaimer

ORBIFLY MET'MAP TEAM :

Programming & Development : Alexandra Zaïnal
Concept & original design : Baudouin d'Aumeries
Assistance for programming : Marc-Olivier Méhu
Technical & hardware support : Manuel Goepfert

Contact : metmap@orbifly.com




SOURCES & CREDITS :

   NOAA